createdAt,value
2022-09-23T03:59:24.327Z,20.34
2022-09-23T04:00:24.284Z,20.27
2022-09-23T04:01:24.369Z,20.25
2022-09-23T04:02:22.798Z,20.25
2022-09-23T04:03:24.283Z,20.23
2022-09-23T04:04:24.675Z,20.25
2022-09-23T04:05:24.285Z,20.25
2022-09-23T04:06:24.301Z,20.32
2022-09-23T04:07:24.286Z,20.34
2022-09-23T04:08:24.290Z,20.38
2022-09-23T04:09:24.292Z,20.37
2022-09-23T04:10:24.301Z,20.37
2022-09-23T04:11:23.804Z,20.41
2022-09-23T04:12:22.624Z,20.37
2022-09-23T04:13:22.616Z,20.37
2022-09-23T04:14:22.601Z,20.46
2022-09-23T04:15:24.331Z,20.38
2022-09-23T04:16:24.340Z,20.40
2022-09-23T04:17:22.600Z,20.42
2022-09-23T04:18:22.598Z,20.46
2022-09-23T04:19:22.583Z,20.49
2022-09-23T04:20:22.589Z,20.57
2022-09-23T04:21:23.827Z,20.48
2022-09-23T04:22:22.577Z,20.53
2022-09-23T04:23:22.568Z,20.56
2022-09-23T04:24:22.559Z,20.57
2022-09-23T04:25:22.576Z,20.56
2022-09-23T04:26:24.317Z,20.66
2022-09-23T04:27:22.564Z,20.60
2022-09-23T04:28:24.317Z,20.64
2022-09-23T04:29:24.313Z,20.60
2022-09-23T04:30:23.537Z,20.64
2022-09-23T04:31:24.468Z,20.72
2022-09-23T04:32:24.307Z,20.75
2022-09-23T04:33:22.537Z,20.74
2022-09-23T04:34:22.521Z,20.76
2022-09-23T04:35:24.313Z,20.79
2022-09-23T04:36:24.319Z,20.78
2022-09-23T04:37:24.327Z,20.81
2022-09-23T04:38:24.315Z,20.81
2022-09-23T04:39:24.329Z,20.75
2022-09-23T04:40:24.369Z,20.81
2022-09-23T04:41:24.319Z,20.72
2022-09-23T04:42:24.330Z,20.82
2022-09-23T04:43:24.326Z,20.83
2022-09-23T04:44:24.338Z,20.82
2022-09-23T04:45:24.329Z,20.81
2022-09-23T04:46:24.355Z,20.82
2022-09-23T04:47:24.328Z,20.83
2022-09-23T04:48:24.331Z,20.93
2022-09-23T04:49:24.336Z,20.93
2022-09-23T04:50:24.320Z,20.90
2022-09-23T04:51:22.479Z,20.90
2022-09-23T04:52:22.466Z,20.93
2022-09-23T04:53:24.324Z,20.91
2022-09-23T04:54:23.888Z,20.91
2022-09-23T04:55:22.467Z,20.88
2022-09-23T04:56:22.450Z,20.93
2022-09-23T04:57:22.453Z,20.90
2022-09-23T04:58:24.345Z,20.94
2022-09-23T04:59:22.438Z,20.88
2022-09-23T05:00:24.342Z,21.01
2022-09-23T05:01:22.558Z,20.96
2022-09-23T05:02:22.507Z,20.94
2022-09-23T05:03:23.448Z,20.97
2022-09-23T05:04:22.428Z,21.01
2022-09-23T05:05:24.363Z,20.94
2022-09-23T05:06:22.422Z,20.91
2022-09-23T05:07:24.337Z,20.94
2022-09-23T05:08:23.416Z,21.00
2022-09-23T05:09:24.339Z,20.98
2022-09-23T05:10:24.349Z,20.98
2022-09-23T05:11:23.396Z,20.94
2022-09-23T05:12:24.337Z,21.00
2022-09-23T05:13:24.358Z,20.88
2022-09-23T05:14:22.384Z,21.01
2022-09-23T05:15:24.344Z,21.04
2022-09-23T05:16:24.407Z,21.04
2022-09-23T05:17:24.346Z,20.98
2022-09-23T05:18:24.359Z,21.01
2022-09-23T05:19:22.417Z,21.03
2022-09-23T05:20:24.347Z,21.04
2022-09-23T05:21:23.855Z,21.00
2022-09-23T05:22:24.355Z,20.94
2022-09-23T05:23:24.347Z,21.04
2022-09-23T05:24:23.869Z,21.15
2022-09-23T05:25:23.859Z,20.94
2022-09-23T05:26:23.850Z,21.04
2022-09-23T05:27:23.879Z,20.96
2022-09-23T05:28:22.384Z,21.09
2022-09-23T05:29:22.349Z,21.04
2022-09-23T05:30:23.852Z,21.06
2022-09-23T05:31:24.048Z,21.06
2022-09-23T05:32:23.855Z,21.09
2022-09-23T05:33:23.856Z,21.08
2022-09-23T05:34:23.871Z,21.00
2022-09-23T05:35:23.941Z,21.11
2022-09-23T05:36:23.862Z,21.09
2022-09-23T05:37:22.329Z,21.08
2022-09-23T05:38:23.910Z,21.08
2022-09-23T05:39:23.899Z,21.11
2022-09-23T05:40:23.929Z,21.08
2022-09-23T05:41:23.879Z,21.11
2022-09-23T05:42:22.309Z,21.08
2022-09-23T05:43:23.882Z,21.13
2022-09-23T05:44:23.304Z,21.15
2022-09-23T05:45:26.273Z,21.09
2022-09-23T05:46:22.325Z,21.13
2022-09-23T05:47:22.278Z,21.09
2022-09-23T05:48:22.294Z,21.13
2022-09-23T05:49:48.349Z,21.16
2022-09-23T05:50:22.375Z,21.22
2022-09-23T05:51:22.333Z,21.21
2022-09-23T05:52:22.314Z,21.22
2022-09-23T05:53:22.297Z,21.19
2022-09-23T05:54:23.960Z,21.21
2022-09-23T05:55:23.984Z,21.21
2022-09-23T05:56:29.003Z,21.21
2022-09-23T05:57:23.476Z,21.19
2022-09-23T05:58:22.344Z,21.30
2022-09-23T05:59:22.243Z,21.31
2022-09-23T06:00:25.051Z,21.30
2022-09-23T06:01:22.269Z,21.33
2022-09-23T06:02:24.143Z,21.19
2022-09-23T06:03:22.298Z,21.27
2022-09-23T06:04:25.546Z,21.30
2022-09-23T06:05:23.899Z,21.30
2022-09-23T06:06:23.891Z,21.30
2022-09-23T06:07:23.911Z,21.27
2022-09-23T06:08:23.911Z,21.30
2022-09-23T06:09:23.903Z,21.33
2022-09-23T06:10:24.887Z,21.31
2022-09-23T06:11:23.887Z,21.31
2022-09-23T06:12:23.967Z,21.30
2022-09-23T06:13:23.910Z,21.31
2022-09-23T06:14:23.892Z,21.36
2022-09-23T06:15:23.901Z,21.37
2022-09-23T06:16:23.946Z,21.33
2022-09-23T06:17:23.952Z,21.40
2022-09-23T06:18:23.926Z,21.38
2022-09-23T06:19:23.965Z,21.51
2022-09-23T06:20:23.921Z,21.52
2022-09-23T06:21:23.180Z,21.49
2022-09-23T06:22:23.408Z,21.52
2022-09-23T06:23:26.423Z,21.53
2022-09-23T06:24:28.520Z,21.51
2022-09-23T06:25:23.171Z,21.58
2022-09-23T06:26:23.158Z,21.58
2022-09-23T06:27:23.152Z,21.68
2022-09-23T06:28:22.157Z,21.66
2022-09-23T06:29:23.416Z,21.67
2022-09-23T06:30:23.415Z,21.71
2022-09-23T06:31:22.245Z,21.73
2022-09-23T06:32:22.368Z,21.74
2022-09-23T06:33:34.954Z,21.78
2022-09-23T06:34:24.024Z,21.85
2022-09-23T06:35:27.460Z,21.86
2022-09-23T06:36:38.737Z,21.78
2022-09-23T06:37:27.157Z,21.85
2022-09-23T06:38:23.420Z,21.93
2022-09-23T06:39:29.968Z,21.94
2022-09-23T06:40:23.162Z,21.94
2022-09-23T06:41:22.114Z,22.02
2022-09-23T06:42:23.933Z,22.00
2022-09-23T06:43:23.440Z,22.11
2022-09-23T06:44:23.924Z,22.08
2022-09-23T06:45:23.945Z,22.12
2022-09-23T06:46:24.263Z,22.15
2022-09-23T06:47:24.209Z,22.08
2022-09-23T06:48:23.975Z,22.22
2022-09-23T06:50:22.527Z,22.12
2022-09-23T06:51:24.112Z,22.09
2022-09-23T06:52:23.512Z,22.20
2022-09-23T06:53:23.934Z,22.24
2022-09-23T06:54:23.967Z,22.29
2022-09-23T06:55:23.937Z,22.29
2022-09-23T06:56:23.932Z,22.23
2022-09-23T06:57:24.003Z,22.29
2022-09-23T06:58:24.455Z,22.24
2022-09-23T06:59:24.662Z,22.29
2022-09-23T07:00:22.060Z,22.29
2022-09-23T07:01:23.990Z,22.31
2022-09-23T07:02:22.182Z,22.31
2022-09-23T07:03:22.062Z,22.34
2022-09-23T07:04:29.121Z,22.34
2022-09-23T07:05:23.936Z,22.38
2022-09-23T07:06:23.991Z,22.38
2022-09-23T07:07:23.938Z,22.42
2022-09-23T07:08:23.995Z,22.36
2022-09-23T07:09:23.968Z,22.48
2022-09-23T07:10:23.992Z,22.49
2022-09-23T07:11:24.049Z,22.46
2022-09-23T07:12:23.061Z,22.41
2022-09-23T07:13:23.989Z,22.49
2022-09-23T07:14:23.104Z,22.46
2022-09-23T07:15:23.986Z,22.46
2022-09-23T07:16:24.043Z,22.61
2022-09-23T07:17:23.952Z,22.57
2022-09-23T07:18:23.976Z,22.57
2022-09-23T07:19:23.949Z,22.60
2022-09-23T07:20:23.981Z,22.61
2022-09-23T07:21:24.026Z,22.66
2022-09-23T07:22:23.065Z,22.59
2022-09-23T07:23:22.023Z,22.69
2022-09-23T07:24:22.009Z,22.71
2022-09-23T07:25:22.009Z,22.71
2022-09-23T07:26:23.965Z,22.67
2022-09-23T07:27:22.092Z,22.67
2022-09-23T07:28:22.011Z,22.66
2022-09-23T07:29:24.069Z,22.84
2022-09-23T07:30:25.397Z,22.73
2022-09-23T07:31:38.546Z,22.78
2022-09-23T07:32:39.388Z,22.79
2022-09-23T07:33:31.786Z,22.76
2022-09-23T07:34:23.240Z,22.84
2022-09-23T07:35:22.979Z,22.85
2022-09-23T07:36:23.960Z,22.86
2022-09-23T07:37:22.128Z,22.89
2022-09-23T07:38:24.064Z,22.94
2022-09-23T07:39:25.142Z,22.92
2022-09-23T07:40:24.193Z,22.92
2022-09-23T07:41:22.049Z,22.97
2022-09-23T07:42:21.970Z,22.99
2022-09-23T07:43:22.313Z,23.00
2022-09-23T07:44:23.500Z,23.06
2022-09-23T07:45:22.025Z,23.06
2022-09-23T07:46:22.047Z,23.12
2022-09-23T07:47:22.026Z,22.99
2022-09-23T07:48:23.675Z,23.09
2022-09-23T07:49:21.964Z,23.06
2022-09-23T07:50:25.172Z,23.14
2022-09-23T07:51:33.273Z,23.06
2022-09-23T07:52:24.510Z,23.07
2022-09-23T07:53:24.500Z,23.21
2022-09-23T07:54:21.962Z,23.19
2022-09-23T07:55:21.967Z,23.25
2022-09-23T07:56:25.071Z,23.26
2022-09-23T07:57:22.052Z,23.22
2022-09-23T07:58:22.355Z,23.25
2022-09-23T07:59:23.548Z,23.34
2022-09-23T08:00:28.488Z,23.37
2022-09-23T08:01:22.172Z,23.40
2022-09-23T08:02:22.179Z,23.38
2022-09-23T08:03:28.888Z,23.40
2022-09-23T08:04:23.508Z,23.32
2022-09-23T08:05:24.522Z,23.48
2022-09-23T08:06:22.944Z,23.52
2022-09-23T08:07:21.931Z,23.48
2022-09-23T08:08:21.954Z,23.53
2022-09-23T08:09:23.037Z,23.57
2022-09-23T08:10:21.938Z,23.57
2022-09-23T08:11:21.930Z,23.62
2022-09-23T08:12:23.558Z,23.70
2022-09-23T08:13:23.535Z,23.66
2022-09-23T08:14:23.529Z,23.70
2022-09-23T08:15:21.955Z,23.75
2022-09-23T08:16:21.974Z,23.78
2022-09-23T08:17:22.102Z,23.75
2022-09-23T08:18:21.998Z,23.84
2022-09-23T08:19:24.082Z,23.79
2022-09-23T08:20:22.637Z,23.90
2022-09-23T08:21:21.990Z,23.90
2022-09-23T08:22:23.528Z,23.96
2022-09-23T08:23:21.932Z,23.96
2022-09-23T08:24:21.990Z,23.96
2022-09-23T08:25:22.789Z,24.09
2022-09-23T08:26:23.072Z,24.07
2022-09-23T08:27:22.174Z,24.08
2022-09-23T08:28:28.551Z,24.09
2022-09-23T08:29:21.984Z,24.07
2022-09-23T08:30:24.623Z,24.08
2022-09-23T08:31:22.001Z,24.07
2022-09-23T08:32:21.975Z,24.15
2022-09-23T08:33:23.547Z,24.18
2022-09-23T08:34:32.483Z,24.22
2022-09-23T08:35:23.569Z,24.19
2022-09-23T08:36:21.923Z,24.24
2022-09-23T08:37:22.593Z,24.21
2022-09-23T08:38:21.951Z,24.22
2022-09-23T08:39:21.999Z,24.29
2022-09-23T08:40:30.230Z,24.32
2022-09-23T08:41:22.981Z,24.27
2022-09-23T08:42:23.528Z,24.33
2022-09-23T08:43:23.533Z,24.39
2022-09-23T08:44:21.916Z,24.34
2022-09-23T08:45:23.566Z,24.42
2022-09-23T08:46:23.611Z,24.54
2022-09-23T08:47:21.923Z,24.51
2022-09-23T08:48:23.537Z,24.48
2022-09-23T08:49:24.208Z,24.48
2022-09-23T08:50:23.607Z,24.58
2022-09-23T08:51:25.083Z,24.56
2022-09-23T08:52:23.541Z,24.63
2022-09-23T08:53:24.563Z,24.66
2022-09-23T08:54:23.528Z,24.67
2022-09-23T08:55:23.569Z,24.67
2022-09-23T08:56:23.566Z,24.74
2022-09-23T08:57:23.929Z,24.67
2022-09-23T08:58:25.569Z,24.75
2022-09-23T08:59:23.535Z,24.78
2022-09-23T09:00:21.952Z,24.85
2022-09-23T09:01:23.603Z,24.83
2022-09-23T09:02:23.644Z,24.87
2022-09-23T09:03:38.692Z,24.92
2022-09-23T09:04:22.048Z,24.94
2022-09-23T09:05:29.571Z,24.97
2022-09-23T09:06:21.919Z,25.02
2022-09-23T09:07:36.150Z,25.04
2022-09-23T09:08:23.560Z,25.00
2022-09-23T09:09:21.922Z,25.01
2022-09-23T09:10:23.544Z,24.97
2022-09-23T09:11:23.567Z,25.04
2022-09-23T09:12:23.616Z,25.09
2022-09-23T09:13:21.926Z,25.17
2022-09-23T09:14:23.561Z,25.11
2022-09-23T09:15:25.095Z,25.23
2022-09-23T09:16:36.545Z,25.23
2022-09-23T09:17:23.560Z,25.15
2022-09-23T09:18:23.691Z,25.22
2022-09-23T09:19:23.570Z,25.32
2022-09-23T09:20:23.575Z,25.34
2022-09-23T09:21:23.560Z,25.34
2022-09-23T09:22:23.706Z,25.34
2022-09-23T09:23:23.582Z,25.37
2022-09-23T09:24:23.560Z,25.38
2022-09-23T09:25:23.577Z,25.34
2022-09-23T09:26:26.017Z,25.29
2022-09-23T09:27:24.517Z,25.47
2022-09-23T09:28:25.180Z,25.37
2022-09-23T09:29:34.841Z,25.39
2022-09-23T09:30:23.619Z,25.44
2022-09-23T09:31:23.037Z,25.41
2022-09-23T09:32:21.921Z,25.42
2022-09-23T09:33:21.889Z,25.54
2022-09-23T09:34:25.524Z,25.51
2022-09-23T09:35:24.628Z,25.57
2022-09-23T09:36:21.900Z,25.51
2022-09-23T09:37:22.777Z,25.56
2022-09-23T09:38:23.631Z,25.59
2022-09-23T09:39:26.137Z,25.63
2022-09-23T09:40:22.412Z,25.60
2022-09-23T09:41:21.971Z,25.66
2022-09-23T09:42:21.965Z,25.64
2022-09-23T09:43:23.802Z,25.57
2022-09-23T09:44:21.919Z,25.57
2022-09-23T09:45:24.730Z,25.54
2022-09-23T09:46:21.950Z,25.59
2022-09-23T09:47:22.923Z,25.60
2022-09-23T09:48:21.931Z,25.52
2022-09-23T09:49:23.631Z,25.59
2022-09-23T09:50:28.648Z,25.57
2022-09-23T09:51:23.598Z,25.54
2022-09-23T09:52:23.626Z,25.57
2022-09-23T09:53:21.891Z,25.56
2022-09-23T09:54:23.578Z,25.59
2022-09-23T09:55:23.718Z,25.69
2022-09-23T09:56:23.629Z,25.60
2022-09-23T09:57:21.889Z,25.63
2022-09-23T09:58:23.555Z,25.59
2022-09-23T09:59:23.536Z,25.57
2022-09-23T10:00:23.552Z,25.54
2022-09-23T10:01:23.664Z,25.62
2022-09-23T10:02:23.554Z,25.51
2022-09-23T10:13:30.846Z,25.59
2022-09-23T10:14:30.770Z,25.56
2022-09-23T10:15:30.782Z,25.56
2022-09-23T10:16:29.207Z,25.38
2022-09-23T10:17:30.163Z,25.41
2022-09-23T10:18:29.171Z,25.41
2022-09-23T10:19:30.268Z,25.38
2022-09-23T10:20:29.189Z,25.38
2022-09-23T10:21:30.146Z,25.44
2022-09-23T10:22:30.196Z,25.34
2022-09-23T10:23:30.206Z,25.34
2022-09-23T10:24:30.278Z,25.33
2022-09-23T10:25:30.140Z,25.33
2022-09-23T10:26:30.139Z,25.34
2022-09-23T10:27:30.297Z,25.38
2022-09-23T10:28:30.141Z,25.30
2022-09-23T10:29:30.245Z,25.30
2022-09-23T10:30:30.201Z,25.33
2022-09-23T10:31:32.134Z,25.34
2022-09-23T10:32:29.147Z,25.26
2022-09-23T10:33:30.767Z,25.29
2022-09-23T10:34:31.776Z,25.32
2022-09-23T10:35:30.791Z,25.30
2022-09-23T10:36:29.139Z,25.23
2022-09-23T10:37:30.793Z,25.30
2022-09-23T10:38:30.774Z,25.32
2022-09-23T10:39:30.805Z,25.24
2022-09-23T10:40:30.829Z,25.27
2022-09-23T10:41:31.142Z,25.19
2022-09-23T10:42:30.811Z,25.27
2022-09-23T10:43:30.795Z,25.15
2022-09-23T10:44:30.789Z,25.19
2022-09-23T10:45:29.278Z,25.22
2022-09-23T10:46:30.971Z,25.19
2022-09-23T10:47:30.298Z,25.23
2022-09-23T10:48:30.410Z,25.19
2022-09-23T10:49:29.175Z,25.14
2022-09-23T10:50:30.854Z,25.15
2022-09-23T10:51:30.807Z,25.07
2022-09-23T10:52:30.808Z,25.19
2022-09-23T10:53:30.835Z,25.12
2022-09-23T10:54:29.138Z,25.19
2022-09-23T10:55:29.151Z,25.19
2022-09-23T10:56:30.811Z,25.14
2022-09-23T10:57:30.800Z,25.14
2022-09-23T10:58:30.908Z,25.12
2022-09-23T10:59:30.833Z,25.15
2022-09-23T11:00:30.804Z,25.17
2022-09-23T11:01:31.139Z,25.08
2022-09-23T11:02:30.814Z,25.15
2022-09-23T11:04:30.925Z,25.12
2022-09-23T11:05:30.813Z,25.07
2022-09-23T11:06:30.816Z,25.07
2022-09-23T11:07:35.043Z,25.12
2022-09-23T11:08:30.827Z,25.14
2022-09-23T11:09:31.847Z,25.01
2022-09-23T11:10:45.438Z,25.11
2022-09-23T11:11:30.846Z,25.09
2022-09-23T11:12:30.823Z,25.09
2022-09-23T11:13:30.839Z,25.11
2022-09-23T11:14:30.557Z,25.09
2022-09-23T11:15:29.699Z,25.09
2022-09-23T11:16:38.614Z,25.04
2022-09-23T11:17:35.488Z,25.09
2022-09-23T11:18:31.278Z,25.11
2022-09-23T11:19:30.872Z,25.09
2022-09-23T11:20:30.843Z,25.02
2022-09-23T11:21:30.859Z,24.97
2022-09-23T11:22:35.907Z,24.97
2022-09-23T11:23:29.295Z,25.07
2022-09-23T11:24:33.522Z,25.07
2022-09-23T11:25:31.085Z,25.07
2022-09-23T11:26:33.134Z,24.97
2022-09-23T11:27:29.139Z,25.08
2022-09-23T11:28:32.835Z,25.02
2022-09-23T11:29:30.873Z,25.04
2022-09-23T11:30:30.940Z,25.05
2022-09-23T11:31:30.846Z,25.00
2022-09-23T11:32:30.884Z,25.09
2022-09-23T11:33:30.873Z,25.02
2022-09-23T11:34:30.871Z,25.12
2022-09-23T11:35:30.900Z,25.11
2022-09-23T11:36:30.879Z,25.09
2022-09-23T11:37:30.871Z,25.04
2022-09-23T11:38:30.883Z,25.09
2022-09-23T11:39:30.866Z,25.01
2022-09-23T11:40:30.922Z,25.07
2022-09-23T11:41:30.855Z,25.04
2022-09-23T11:42:30.861Z,25.04
2022-09-23T11:43:30.877Z,25.01
2022-09-23T11:44:30.902Z,25.01
2022-09-23T11:45:30.903Z,25.01
2022-09-23T11:46:30.950Z,25.08
2022-09-23T11:47:30.878Z,25.12
2022-09-23T11:48:30.938Z,25.07
2022-09-23T11:49:30.873Z,25.02
2022-09-23T11:50:30.886Z,25.09
2022-09-23T11:51:30.900Z,25.02
2022-09-23T11:52:30.868Z,25.02
2022-09-23T11:53:29.141Z,25.04
2022-09-23T11:54:29.166Z,25.07
2022-09-23T11:55:30.903Z,25.08
2022-09-23T11:56:35.537Z,25.01
2022-09-23T11:57:37.565Z,25.07
2022-09-23T11:58:29.213Z,25.04
2022-09-23T11:59:39.659Z,25.05
2022-09-23T12:00:29.135Z,25.07
2022-09-23T12:01:37.314Z,25.07
2022-09-23T12:02:31.033Z,25.04
2022-09-23T12:03:41.670Z,24.97
2022-09-23T12:04:29.701Z,25.05
2022-09-23T12:05:29.332Z,25.12
2022-09-23T12:06:29.150Z,25.02
2022-09-23T12:07:30.908Z,25.05
2022-09-23T12:08:29.137Z,25.07
2022-09-23T12:09:54.068Z,25.07
2022-09-23T12:10:30.909Z,25.09
2022-09-23T12:11:31.007Z,25.07
2022-09-23T12:12:30.925Z,25.14
2022-09-23T12:13:30.899Z,25.00
2022-09-23T12:14:30.960Z,25.12
2022-09-23T12:15:30.947Z,25.05
2022-09-23T12:16:31.082Z,25.04
2022-09-23T12:17:30.931Z,25.00
2022-09-23T12:18:30.898Z,25.01
2022-09-23T12:19:30.911Z,25.00
2022-09-23T12:20:30.947Z,25.01
2022-09-23T12:21:49.645Z,25.00
2022-09-23T12:22:30.936Z,25.00
2022-09-23T12:23:29.128Z,25.00
2022-09-23T12:24:29.138Z,25.01
2022-09-23T12:25:29.147Z,25.15
2022-09-23T12:26:29.154Z,25.07
2022-09-23T12:27:30.935Z,25.04
2022-09-23T12:28:30.915Z,25.07
2022-09-23T12:29:30.917Z,25.07
2022-09-23T12:30:30.944Z,25.07
2022-09-23T12:31:31.069Z,25.07
2022-09-23T12:32:30.924Z,25.05
2022-09-23T12:33:30.966Z,25.07
2022-09-23T12:34:30.146Z,24.97
2022-09-23T12:35:30.925Z,25.08
2022-09-23T12:36:30.940Z,25.07
2022-09-23T12:37:30.972Z,25.09
2022-09-23T12:38:30.934Z,25.17
2022-09-23T12:39:30.923Z,25.05
2022-09-23T12:40:30.983Z,25.22
2022-09-23T12:41:29.125Z,25.17
2022-09-23T12:42:31.216Z,25.15
2022-09-23T12:43:30.964Z,25.19
2022-09-23T12:44:29.131Z,25.19
2022-09-23T12:45:29.137Z,25.20
2022-09-23T12:46:30.960Z,25.23
2022-09-23T12:47:29.128Z,25.30
2022-09-23T12:48:30.972Z,25.33
2022-09-23T12:49:29.203Z,25.39
2022-09-23T12:50:29.154Z,25.32
2022-09-23T12:51:29.128Z,25.39
2022-09-23T12:52:29.144Z,25.42
2022-09-23T12:53:30.946Z,25.37
2022-09-23T12:54:29.121Z,25.47
2022-09-23T12:55:29.141Z,25.39
2022-09-23T12:56:29.121Z,25.45
2022-09-23T12:57:30.964Z,25.45
2022-09-23T12:58:30.952Z,25.52
2022-09-23T12:59:30.956Z,25.47
2022-09-23T13:00:34.273Z,25.49
2022-09-23T13:01:31.054Z,25.48
2022-09-23T13:02:31.022Z,25.42
2022-09-23T13:03:30.976Z,25.42
2022-09-23T13:04:30.991Z,25.54
2022-09-23T13:05:30.954Z,25.48
2022-09-23T13:06:30.953Z,25.39
2022-09-23T13:07:30.987Z,25.47
2022-09-23T13:08:31.012Z,25.45
2022-09-23T13:09:30.989Z,25.47
2022-09-23T13:10:30.958Z,25.42
2022-09-23T13:11:30.971Z,25.37
2022-09-23T13:12:30.958Z,25.44
2022-09-23T13:13:30.991Z,25.45
2022-09-23T13:14:30.964Z,25.37
2022-09-23T13:15:29.133Z,25.41
2022-09-23T13:16:31.095Z,25.33
2022-09-23T13:17:31.010Z,25.32
2022-09-23T13:18:31.065Z,25.32
2022-09-23T13:19:34.173Z,25.33
2022-09-23T13:20:30.984Z,25.37
2022-09-23T13:21:29.125Z,25.39
2022-09-23T13:22:29.121Z,25.38
2022-09-23T13:23:30.969Z,25.33
2022-09-23T13:24:30.497Z,25.39
2022-09-23T13:25:31.006Z,25.34
2022-09-23T13:26:30.986Z,25.33
2022-09-23T13:27:29.126Z,25.30
2022-09-23T13:28:29.145Z,25.30
2022-09-23T13:29:29.119Z,25.33
2022-09-23T13:30:29.126Z,25.33
2022-09-23T13:31:31.057Z,25.24
2022-09-23T13:32:29.120Z,25.22
2022-09-23T13:33:31.027Z,25.29
2022-09-23T13:34:29.133Z,25.19
2022-09-23T13:35:30.996Z,25.23
2022-09-23T13:36:30.122Z,25.15
2022-09-23T13:37:31.030Z,25.11
2022-09-23T13:38:29.120Z,25.17
2022-09-23T13:39:31.047Z,25.14
2022-09-23T13:40:30.208Z,25.12
2022-09-23T13:41:30.998Z,25.08
2022-09-23T13:42:31.009Z,25.14
2022-09-23T13:43:30.124Z,25.09
2022-09-23T13:44:31.003Z,25.14
2022-09-23T13:45:31.125Z,25.11
2022-09-23T13:46:31.008Z,25.12
2022-09-23T13:47:31.023Z,25.04
2022-09-23T13:48:30.996Z,25.07
2022-09-23T13:49:31.038Z,24.97
2022-09-23T13:50:34.873Z,25.02
2022-09-23T13:51:30.998Z,25.02
2022-09-23T13:52:30.999Z,25.09
2022-09-23T13:53:31.041Z,25.04
2022-09-23T13:54:31.005Z,25.05
2022-09-23T13:55:31.016Z,25.02
2022-09-23T13:56:31.038Z,25.01
2022-09-23T13:57:29.111Z,25.05
2022-09-23T13:58:29.112Z,25.00
2022-09-23T13:59:29.112Z,25.04
2022-09-23T14:00:31.022Z,25.00
2022-09-23T14:01:31.083Z,24.90
2022-09-23T14:02:31.097Z,24.89
2022-09-23T14:03:35.916Z,24.92
2022-09-23T14:04:31.016Z,25.01
2022-09-23T14:05:31.029Z,24.93
2022-09-23T14:06:31.047Z,24.89
2022-09-23T14:07:31.015Z,24.86
2022-09-23T14:08:31.017Z,24.89
2022-09-23T14:09:31.036Z,24.83
2022-09-23T14:10:31.017Z,24.77
2022-09-23T14:11:31.024Z,24.78
2022-09-23T14:12:31.045Z,24.77
2022-09-23T14:13:31.978Z,24.78
2022-09-23T14:14:31.053Z,24.75
2022-09-23T14:15:31.041Z,24.75
2022-09-23T14:16:31.196Z,24.74
2022-09-23T14:17:31.076Z,24.69
2022-09-23T14:18:31.059Z,24.71
2022-09-23T14:19:29.104Z,24.66
2022-09-23T14:20:31.049Z,24.74
2022-09-23T14:21:29.110Z,24.70
2022-09-23T14:22:29.119Z,24.77
2022-09-23T14:23:29.103Z,24.74
2022-09-23T14:24:29.100Z,24.64
2022-09-23T14:25:30.550Z,24.75
2022-09-23T14:26:29.102Z,24.69
2022-09-23T14:27:29.099Z,24.75
2022-09-23T14:28:29.169Z,24.70
2022-09-23T14:29:29.108Z,24.74
2022-09-23T14:30:31.058Z,24.75
2022-09-23T14:31:29.156Z,24.64
2022-09-23T14:32:29.097Z,24.59
2022-09-23T14:33:31.047Z,24.58
2022-09-23T14:34:31.059Z,24.67
2022-09-23T14:35:29.094Z,24.61
2022-09-23T14:36:31.057Z,24.59
2022-09-23T14:37:31.048Z,24.66
2022-09-23T14:38:30.089Z,24.59
2022-09-23T14:39:31.063Z,24.59
2022-09-23T14:40:31.162Z,24.64
2022-09-23T14:41:31.088Z,24.61
2022-09-23T14:42:31.054Z,24.55
2022-09-23T14:43:31.061Z,24.61
2022-09-23T14:44:31.055Z,24.58
2022-09-23T14:45:31.112Z,24.58
2022-09-23T14:46:31.068Z,24.63
2022-09-23T14:47:31.069Z,24.44
2022-09-23T14:48:31.099Z,24.45
2022-09-23T14:49:31.060Z,24.40
2022-09-23T14:50:31.076Z,24.51
2022-09-23T14:51:31.068Z,24.51
2022-09-23T14:52:31.064Z,24.46
2022-09-23T14:53:30.087Z,24.44
2022-09-23T14:54:30.578Z,24.42
2022-09-23T14:55:29.093Z,24.34
2022-09-23T14:56:30.013Z,24.45
2022-09-23T14:57:29.081Z,24.32
2022-09-23T14:58:29.085Z,24.32
2022-09-23T14:59:30.609Z,24.29
2022-09-23T15:00:29.079Z,24.27
2022-09-23T15:01:30.659Z,24.22
2022-09-23T15:02:29.073Z,24.24
2022-09-23T15:03:29.101Z,24.27
2022-09-23T15:04:30.092Z,24.27
2022-09-23T15:05:29.077Z,24.19
2022-09-23T15:06:30.582Z,24.22
2022-09-23T15:07:29.063Z,24.12
2022-09-23T15:08:30.630Z,24.24
2022-09-23T15:09:30.062Z,24.19
2022-09-23T15:10:30.064Z,24.14
2022-09-23T15:11:30.616Z,24.17
2022-09-23T15:12:29.057Z,24.09
2022-09-23T15:13:30.675Z,24.07
2022-09-23T15:14:39.099Z,24.09
2022-09-23T15:15:30.608Z,24.09
2022-09-23T15:16:30.658Z,24.00
2022-09-23T15:17:30.606Z,23.97
2022-09-23T15:18:30.110Z,23.93
2022-09-23T15:19:29.051Z,23.93
2022-09-23T15:20:30.623Z,23.97
2022-09-23T15:21:30.598Z,23.94
2022-09-23T15:22:30.596Z,23.92
2022-09-23T15:23:30.117Z,23.99
2022-09-23T15:24:30.621Z,23.92
2022-09-23T15:25:30.074Z,23.93
2022-09-23T15:26:30.601Z,23.92
2022-09-23T15:27:30.640Z,23.90
2022-09-23T15:28:30.611Z,23.96
2022-09-23T15:29:30.616Z,23.84
2022-09-23T15:30:29.033Z,23.89
2022-09-23T15:31:30.752Z,23.79
2022-09-23T15:32:30.617Z,23.84
2022-09-23T15:33:30.037Z,23.87
2022-09-23T15:34:29.030Z,23.78
2022-09-23T15:35:30.621Z,23.81
2022-09-23T15:36:30.639Z,23.78
2022-09-23T15:37:34.229Z,23.77
2022-09-23T15:38:30.638Z,23.74
2022-09-23T15:39:35.958Z,23.74
2022-09-23T15:40:30.675Z,23.71
2022-09-23T15:41:30.617Z,23.71
2022-09-23T15:42:29.019Z,23.64
2022-09-23T15:43:30.636Z,23.72
2022-09-23T15:44:29.015Z,23.71
2022-09-23T15:45:30.635Z,23.63
2022-09-23T15:46:30.620Z,23.59
2022-09-23T15:47:30.662Z,23.62
2022-09-23T15:48:30.154Z,23.53
2022-09-23T15:49:30.624Z,23.55
2022-09-23T15:50:30.628Z,23.56
2022-09-23T15:51:30.626Z,23.60
2022-09-23T15:52:30.627Z,23.57
2022-09-23T15:53:30.663Z,23.60
2022-09-23T15:54:30.682Z,23.47
2022-09-23T15:55:30.636Z,23.50
2022-09-23T15:56:30.023Z,23.42
2022-09-23T15:57:28.997Z,23.47
2022-09-23T15:58:28.995Z,23.42
2022-09-23T15:59:28.998Z,23.35
2022-09-23T16:00:30.155Z,23.42
2022-09-23T16:01:29.035Z,23.42
2022-09-23T16:12:48.014Z,23.12
2022-09-23T16:13:46.313Z,23.09
2022-09-23T16:14:47.915Z,23.06
2022-09-23T16:15:47.411Z,23.06
2022-09-23T16:16:46.311Z,23.10
2022-09-23T16:17:47.915Z,23.04
2022-09-23T16:18:47.912Z,23.03
2022-09-23T16:19:47.908Z,23.03
2022-09-23T16:20:47.922Z,23.06
2022-09-23T16:21:47.909Z,22.96
2022-09-23T16:22:47.936Z,22.89
2022-09-23T16:23:47.908Z,22.94
2022-09-23T16:24:47.923Z,22.86
2022-09-23T16:25:47.925Z,22.94
2022-09-23T16:26:47.929Z,22.86
2022-09-23T16:27:47.927Z,22.91
2022-09-23T16:28:47.272Z,22.84
2022-09-23T16:29:47.917Z,22.88
2022-09-23T16:30:46.246Z,22.85
2022-09-23T16:31:46.323Z,22.70
2022-09-23T16:32:47.442Z,22.81
2022-09-23T16:33:46.260Z,22.84
2022-09-23T16:34:46.244Z,22.81
2022-09-23T16:35:46.233Z,22.79
2022-09-23T16:36:46.239Z,22.66
2022-09-23T16:37:47.442Z,22.82
2022-09-23T16:38:47.441Z,22.69
2022-09-23T16:39:46.225Z,22.69
2022-09-23T16:40:47.289Z,22.66
2022-09-23T16:41:46.227Z,22.67
2022-09-23T16:42:46.245Z,22.67
2022-09-23T16:43:47.942Z,22.64
2022-09-23T16:44:46.227Z,22.59
2022-09-23T16:45:46.295Z,22.66
2022-09-23T16:46:46.207Z,22.63
2022-09-23T16:47:46.215Z,22.67
2022-09-23T16:48:52.243Z,22.61
2022-09-23T16:49:47.209Z,22.55
2022-09-23T16:50:47.194Z,22.59
2022-09-23T16:51:46.208Z,22.55
2022-09-23T16:52:47.958Z,22.45
2022-09-23T16:53:47.185Z,22.48
2022-09-23T16:54:46.189Z,22.45
2022-09-23T16:55:47.965Z,22.45
2022-09-23T16:56:47.954Z,22.55
2022-09-23T16:57:46.192Z,22.52
2022-09-23T16:58:47.946Z,22.48
2022-09-23T16:59:47.188Z,22.45
2022-09-23T17:00:48.041Z,22.45
2022-09-23T17:01:48.093Z,22.45
2022-09-23T17:02:47.174Z,22.42
2022-09-23T17:03:47.962Z,22.39
2022-09-23T17:04:47.947Z,22.46
2022-09-23T17:05:47.963Z,22.42
2022-09-23T17:06:47.960Z,22.38
2022-09-23T17:07:47.948Z,22.39
2022-09-23T17:08:47.982Z,22.31
2022-09-23T17:09:47.969Z,22.41
2022-09-23T17:10:47.958Z,22.38
2022-09-23T17:11:47.965Z,22.34
2022-09-23T17:12:47.956Z,22.36
2022-09-23T17:13:47.962Z,22.31